Archival Weather

Norman Y Mineta San Jose Intl

San Jose, California (KSJC)

Report from: Wednesday, January 31, 2024 11:53 PM PST
Current time: Monday, June 24, 2024 3:26 AM PDT

Current weather – Weather history – Daily summaries
Weather forecast

Present weatherRain, mist
Temperature12.2°C (54.0°F)
Dew point10.6°C (51.1°F)
Winds 6 kts (3.1 m/s, 6.9 mph) East-Southeast (110°)
Visibility6 mi. (9.7 km)
Clouds Ceiling: Overcast 6,000 ft. (1,829 m)
Altimeter29.64 in.Hg (1004 mB)
Precipitiation0.13 in. (3 mm)
Relative humidity90 %
Density altitude172 ft. (52 m)
Sea-level pressure100.4 kPa (1004 mB, 29.64 in.Hg)
Max temp last 24 hours17.8°C (64.0°F)
Min temp last 24 hours12.2°C (54.0°F)
Remarks Automated weather observing station with precipitation discriminator
Flight conditions Visual Meteorological Conditions
Raw dataKSJC 010753Z 11006KT 6SM RA BR OVC060 12/11 A2964 RMK AO2 SLP037 P0013 T01220106 401780122
An error has occurred. This application may no longer respond until reloaded. Reload 🗙